Time;durP1;ratioP1;P1;durP2;ratioP2;P2;SDS_P1;SDS_P2;PMS_P1;PMS_P2;Temp;Humidity;BMP_temperature;BMP_pressure;BME280_temperature;BME280_humidity;BME280_pressure;Samples;Min_cycle;Max_cycle;Signal;HPM_P1;HPM_P2
2022/10/24 00:00:06;;;;;;;6.45;1.83;;;17.30;99.90;;;;;;5075142;28;20111;-71
2022/10/24 00:02:33;;;;;;;9.80;1.98;;;17.30;99.90;;;;;;5074949;28;20063;-70
2022/10/24 00:04:58;;;;;;;5.35;1.70;;;17.40;99.90;;;;;;5075198;28;20037;-71
2022/10/24 00:07:24;;;;;;;5.20;1.80;;;17.50;99.90;;;;;;5075112;28;20088;-71
2022/10/24 00:09:50;;;;;;;7.20;1.73;;;17.50;99.90;;;;;;5074887;28;20036;-71
2022/10/24 00:12:17;;;;;;;8.90;2.05;;;17.60;99.90;;;;;;5076180;28;20025;-70
2022/10/24 00:14:42;;;;;;;6.15;1.88;;;17.60;99.90;;;;;;5074568;28;20431;-71
2022/10/24 00:17:08;;;;;;;8.82;2.10;;;17.50;99.90;;;;;;5075238;28;20032;-71
2022/10/24 00:19:34;;;;;;;5.20;1.70;;;17.50;99.90;;;;;;5074815;28;20058;-70
2022/10/24 00:21:59;;;;;;;10.85;1.50;;;17.40;99.90;;;;;;5075114;28;20028;-70
2022/10/24 00:24:25;;;;;;;11.85;1.90;;;17.50;99.90;;;;;;5074750;28;20052;-71
2022/10/24 00:26:51;;;;;;;9.52;2.08;;;17.40;99.90;;;;;;5074531;28;20025;-71
2022/10/24 00:29:17;;;;;;;8.85;1.98;;;17.50;99.90;;;;;;5056442;28;20048;-71
2022/10/24 00:31:43;;;;;;;12.45;2.45;;;17.50;99.90;;;;;;5074674;28;20457;-71
2022/10/24 00:34:09;;;;;;;4.28;2.03;;;17.50;99.90;;;;;;5074596;28;20036;-71
2022/10/24 00:36:34;;;;;;;7.53;2.75;;;17.40;99.90;;;;;;5074848;28;20020;-70
2022/10/24 00:39:00;;;;;;;5.57;1.83;;;17.40;99.90;;;;;;5074481;28;20036;-71
2022/10/24 00:41:33;;;;;;;11.75;2.17;;;17.50;99.90;;;;;;5074850;28;20126;-71
2022/10/24 00:44:39;;;;;;;11.38;1.95;;;17.50;99.90;;;;;;5074231;28;20044;-71
2022/10/24 00:47:14;;;;;;;8.35;2.50;;;17.50;99.90;;;;;;5033846;28;20100;-72
2022/10/24 00:49:49;;;;;;;4.43;1.55;;;17.50;99.90;;;;;;5074264;28;20041;-71
2022/10/24 00:52:20;;;;;;;15.00;2.78;;;17.50;99.90;;;;;;5074383;28;20021;-70
2022/10/24 00:54:46;;;;;;;4.85;2.17;;;17.50;99.90;;;;;;5073837;28;20036;-71
2022/10/24 00:57:23;;;;;;;11.40;2.03;;;17.50;99.90;;;;;;5074292;28;20056;-71
2022/10/24 00:59:55;;;;;;;8.95;1.88;;;17.50;99.90;;;;;;5074068;28;20029;-71
2022/10/24 01:02:22;;;;;;;13.38;1.83;;;17.50;99.90;;;;;;5073990;28;20052;-71
2022/10/24 01:04:47;;;;;;;6.82;1.80;;;17.60;99.90;;;;;;5074000;28;20021;-71
2022/10/24 01:07:46;;;;;;;8.45;2.42;;;17.60;99.90;;;;;;5073809;28;20469;-70
2022/10/24 01:10:48;;;;;;;9.15;1.98;;;17.60;99.90;;;;;;5062080;28;20032;-71
2022/10/24 01:13:42;;;;;;;8.85;1.80;;;17.60;99.90;;;;;;5073624;28;20499;-72
2022/10/24 01:16:26;;;;;;;9.30;1.77;;;17.70;99.90;;;;;;5073816;28;20020;-70
2022/10/24 01:19:01;;;;;;;8.50;1.95;;;17.60;99.90;;;;;;5073824;28;20040;-71
2022/10/24 01:21:45;;;;;;;8.25;2.45;;;17.60;99.90;;;;;;5073676;28;20177;-71
2022/10/24 01:24:29;;;;;;;9.75;2.47;;;17.60;99.90;;;;;;5073857;28;20085;-68
2022/10/24 01:27:37;;;;;;;6.90;1.75;;;17.50;99.90;;;;;;5072945;28;20044;-70
2022/10/24 01:30:16;;;;;;;10.60;1.67;;;17.70;99.90;;;;;;5073289;28;20020;-71
2022/10/24 01:32:42;;;;;;;12.20;2.15;;;17.70;99.90;;;;;;5073317;28;20056;-71
2022/10/24 01:35:35;;;;;;;12.25;2.47;;;17.70;99.90;;;;;;5073276;28;20067;-71
2022/10/24 01:38:19;;;;;;;6.68;1.67;;;17.60;99.90;;;;;;5055237;28;20468;-71
2022/10/24 01:41:06;;;;;;;5.00;1.70;;;17.50;99.90;;;;;;5060614;28;20040;-71
2022/10/24 01:43:40;;;;;;;6.95;1.30;;;17.50;99.90;;;;;;5073402;28;20043;-70
2022/10/24 01:46:19;;;;;;;11.38;2.03;;;17.50;99.90;;;;;;5073199;28;20036;-71
2022/10/24 01:48:51;;;;;;;10.38;1.73;;;17.50;99.90;;;;;;5073202;28;20423;-71
2022/10/24 01:51:21;;;;;;;16.55;2.03;;;17.40;99.90;;;;;;5073225;28;20060;-71
2022/10/24 01:53:47;;;;;;;15.35;2.30;;;17.50;99.90;;;;;;5072980;28;20078;-71
2022/10/24 01:56:13;;;;;;;8.40;1.25;;;17.40;99.90;;;;;;5072785;28;20083;-71
2022/10/24 01:58:38;;;;;;;7.68;2.22;;;17.30;99.90;;;;;;5073160;28;20500;-69
2022/10/24 02:01:12;;;;;;;7.70;2.03;;;17.40;99.90;;;;;;5072866;28;20025;-70
2022/10/24 02:03:46;;;;;;;11.38;1.90;;;17.40;99.90;;;;;;5072986;28;20044;-71
2022/10/24 02:06:17;;;;;;;6.03;1.50;;;17.40;99.90;;;;;;5072932;28;20113;-71
2022/10/24 02:08:47;;;;;;;6.95;1.77;;;17.40;99.90;;;;;;5072921;28;20032;-70
2022/10/24 02:11:13;;;;;;;8.00;1.80;;;17.30;99.90;;;;;;5072480;28;20130;-71
2022/10/24 02:13:48;;;;;;;4.90;1.40;;;17.30;99.90;;;;;;5073015;28;20115;-70
2022/10/24 02:16:19;;;;;;;9.50;2.15;;;17.30;99.90;;;;;;5072882;28;20025;-70
2022/10/24 02:18:48;;;;;;;6.53;2.45;;;17.30;99.90;;;;;;5072169;28;20024;-70
2022/10/24 02:21:42;;;;;;;15.32;2.22;;;17.40;99.90;;;;;;5072010;28;20036;-70
2022/10/24 02:24:14;;;;;;;10.68;2.20;;;17.30;99.90;;;;;;5063521;28;20032;-71
2022/10/24 02:27:20;;;;;;;7.13;1.60;;;17.30;99.90;;;;;;5072011;28;20029;-71
2022/10/24 02:29:51;;;;;;;6.55;1.42;;;17.20;99.90;;;;;;4990965;28;20409;-70
2022/10/24 02:32:36;;;;;;;8.85;2.53;;;17.20;99.90;;;;;;5061057;28;20127;-70
2022/10/24 02:35:05;;;;;;;11.63;1.55;;;17.10;99.90;;;;;;5072457;28;20477;-70
2022/10/24 02:37:35;;;;;;;10.13;1.70;;;17.20;99.90;;;;;;5072314;28;20490;-70
2022/10/24 02:40:04;;;;;;;8.38;2.05;;;17.30;99.90;;;;;;5072012;28;20465;-71
2022/10/24 02:42:34;;;;;;;9.30;2.42;;;17.20;99.90;;;;;;5071861;28;20024;-71
2022/10/24 02:45:01;;;;;;;13.65;2.28;;;17.20;99.90;;;;;;5070730;28;20539;-71
2022/10/24 02:47:28;;;;;;;9.88;2.00;;;17.30;99.90;;;;;;5075661;28;20036;-70
2022/10/24 02:49:54;;;;;;;8.43;1.58;;;17.20;99.90;;;;;;5083937;28;20028;-70
2022/10/24 02:52:20;;;;;;;8.38;1.98;;;17.30;99.90;;;;;;5081793;28;20031;-69
2022/10/24 02:54:46;;;;;;;4.00;1.42;;;17.30;99.90;;;;;;5088489;28;20469;-69
2022/10/24 02:57:14;;;;;;;16.10;2.35;;;17.20;99.90;;;;;;5092541;28;20111;-71
2022/10/24 02:59:39;;;;;;;14.85;2.50;;;17.20;99.90;;;;;;5092769;28;20044;-70
2022/10/24 03:02:05;;;;;;;8.50;1.63;;;17.20;99.90;;;;;;5078748;28;20486;-70
2022/10/24 03:04:31;;;;;;;8.02;1.52;;;17.20;99.90;;;;;;5092357;28;20018;-70
2022/10/24 03:06:57;;;;;;;8.88;1.48;;;17.40;99.90;;;;;;5092345;28;20063;-70
2022/10/24 03:09:22;;;;;;;15.40;1.60;;;17.40;99.90;;;;;;5092418;28;20040;-71
2022/10/24 03:11:49;;;;;;;11.55;1.90;;;17.30;99.90;;;;;;5092211;28;20036;-70
2022/10/24 03:14:14;;;;;;;9.55;2.08;;;17.30;99.90;;;;;;5092365;28;20024;-71
2022/10/24 03:16:40;;;;;;;8.63;2.00;;;17.30;99.90;;;;;;5091886;28;20099;-70
2022/10/24 03:19:06;;;;;;;9.57;1.70;;;17.20;99.90;;;;;;5063954;28;20056;-71
2022/10/24 03:21:32;;;;;;;10.70;1.92;;;17.20;99.90;;;;;;5092650;28;20073;-71
2022/10/24 03:23:58;;;;;;;8.38;1.80;;;17.20;99.90;;;;;;5091758;28;20073;-70
2022/10/24 03:26:24;;;;;;;7.75;2.05;;;17.20;99.90;;;;;;5091719;28;20032;-71
2022/10/24 03:28:49;;;;;;;14.75;2.33;;;17.20;99.90;;;;;;5092559;28;20103;-67
2022/10/24 03:31:15;;;;;;;9.65;1.75;;;17.00;99.90;;;;;;5096217;28;20035;-71
2022/10/24 03:33:41;;;;;;;8.73;1.77;;;16.90;99.90;;;;;;5095886;28;20019;-71
2022/10/24 03:36:07;;;;;;;8.02;1.65;;;16.90;99.90;;;;;;5096244;28;20028;-71
2022/10/24 03:38:32;;;;;;;7.68;1.60;;;16.90;99.90;;;;;;5095628;28;20153;-71
2022/10/24 03:40:58;;;;;;;9.90;1.83;;;16.80;99.90;;;;;;5095669;28;20020;-71
2022/10/24 03:43:24;;;;;;;7.28;1.25;;;16.90;99.90;;;;;;5077613;28;20415;-71
2022/10/24 03:45:50;;;;;;;9.63;1.50;;;16.90;99.90;;;;;;5095648;28;20024;-71
2022/10/24 03:48:16;;;;;;;12.23;1.83;;;16.90;99.90;;;;;;5095628;28;20051;-71
2022/10/24 03:50:42;;;;;;;10.40;1.55;;;16.90;99.90;;;;;;5095648;28;20032;-70
2022/10/24 03:53:08;;;;;;;4.97;1.48;;;16.90;99.90;;;;;;5079023;28;20027;-71
2022/10/24 03:55:34;;;;;;;4.70;1.40;;;16.90;99.90;;;;;;5095592;28;20064;-69
2022/10/24 03:58:00;;;;;;;10.25;1.90;;;16.80;99.90;;;;;;5095254;28;20036;-70
2022/10/24 04:00:27;;;;;;;12.35;1.88;;;16.90;99.90;;;;;;5095476;28;20030;-71
2022/10/24 04:02:54;;;;;;;12.32;1.92;;;16.80;99.90;;;;;;5094956;28;20042;-71
2022/10/24 04:05:19;;;;;;;7.93;2.05;;;16.90;99.90;;;;;;5095556;28;20047;-70
2022/10/24 04:07:45;;;;;;;10.95;2.00;;;16.90;99.90;;;;;;5094748;28;20472;-68
2022/10/24 04:10:11;;;;;;;14.63;2.25;;;17.00;99.90;;;;;;5095224;28;20035;-67
2022/10/24 04:12:37;;;;;;;9.23;1.80;;;17.00;99.90;;;;;;5077061;28;20020;-70
2022/10/24 04:15:03;;;;;;;17.48;2.30;;;17.10;99.90;;;;;;5094947;28;20499;-70
2022/10/24 04:17:30;;;;;;;7.80;1.58;;;17.00;99.90;;;;;;5095295;28;20024;-69
2022/10/24 04:19:55;;;;;;;9.00;2.15;;;17.00;99.90;;;;;;5094487;28;20028;-70
2022/10/24 04:22:21;;;;;;;8.00;1.90;;;17.00;99.90;;;;;;5094734;28;20031;-70
2022/10/24 04:24:47;;;;;;;8.55;2.03;;;16.90;99.90;;;;;;5094880;28;20473;-70
2022/10/24 04:27:12;;;;;;;15.40;2.33;;;16.90;99.90;;;;;;5094608;28;20063;-71
2022/10/24 04:29:38;;;;;;;8.88;1.67;;;17.10;99.90;;;;;;5086328;28;20384;-70
2022/10/24 04:32:04;;;;;;;11.82;2.58;;;17.10;99.90;;;;;;5094182;28;20469;-70
2022/10/24 04:34:32;;;;;;;12.02;2.28;;;17.00;99.90;;;;;;5094706;28;20016;-71
2022/10/24 04:36:58;;;;;;;7.53;2.08;;;17.00;99.90;;;;;;5076328;28;20029;-71
2022/10/24 04:39:23;;;;;;;14.45;2.45;;;17.00;99.90;;;;;;5094461;28;20026;-71
2022/10/24 04:41:49;;;;;;;11.63;1.90;;;17.00;99.90;;;;;;5080174;28;20044;-71
2022/10/24 04:44:15;;;;;;;15.43;2.15;;;17.00;99.90;;;;;;5094058;28;20381;-70
2022/10/24 04:46:40;;;;;;;18.20;1.80;;;17.10;99.90;;;;;;5094430;28;20047;-69
2022/10/24 04:49:06;;;;;;;8.55;2.00;;;17.10;99.90;;;;;;5075971;28;20022;-69
2022/10/24 04:51:32;;;;;;;16.05;2.72;;;17.20;99.90;;;;;;5088262;28;20093;-70
2022/10/24 04:53:58;;;;;;;9.55;2.05;;;17.20;99.90;;;;;;5086264;28;20354;-71
2022/10/24 04:56:25;;;;;;;12.05;2.15;;;17.00;99.90;;;;;;5093869;28;20032;-70
2022/10/24 04:58:51;;;;;;;10.52;2.00;;;17.10;99.90;;;;;;5093866;28;20058;-70
2022/10/24 05:01:17;;;;;;;16.00;3.35;;;17.00;99.90;;;;;;5093803;28;20776;-69
2022/10/24 05:03:43;;;;;;;15.88;2.55;;;17.10;99.90;;;;;;5075848;28;20149;-71
2022/10/24 05:06:09;;;;;;;9.98;2.20;;;17.00;99.90;;;;;;5093589;28;20024;-70
2022/10/24 05:08:35;;;;;;;7.78;2.33;;;17.00;99.90;;;;;;5075859;28;20503;-71
2022/10/24 05:11:01;;;;;;;12.18;2.30;;;17.00;99.90;;;;;;5093652;28;20028;-71
2022/10/24 05:13:27;;;;;;;13.95;3.30;;;17.00;99.90;;;;;;5093942;28;20016;-71
2022/10/24 05:15:52;;;;;;;11.25;2.10;;;17.00;99.90;;;;;;5094083;28;20026;-71
2022/10/24 05:18:18;;;;;;;10.93;2.80;;;16.90;99.90;;;;;;5093413;28;20032;-71
2022/10/24 05:20:44;;;;;;;14.35;2.25;;;16.90;99.90;;;;;;5093710;28;20038;-70
2022/10/24 05:23:10;;;;;;;13.23;2.45;;;16.90;99.90;;;;;;5093690;28;20024;-71
2022/10/24 05:25:35;;;;;;;10.07;2.05;;;16.90;99.90;;;;;;5093582;28;20032;-71
2022/10/24 05:28:01;;;;;;;11.98;2.67;;;16.90;99.90;;;;;;5093688;28;20032;-68
2022/10/24 05:30:27;;;;;;;19.55;2.50;;;16.90;99.90;;;;;;5093540;28;20085;-68
2022/10/24 05:32:53;;;;;;;13.65;2.53;;;16.80;99.90;;;;;;5093484;28;20028;-66
2022/10/24 05:35:18;;;;;;;8.73;2.40;;;16.90;99.90;;;;;;5093455;28;20076;-66
2022/10/24 05:37:44;;;;;;;11.23;2.22;;;16.80;99.90;;;;;;5093763;28;20115;-70
2022/10/24 05:40:11;;;;;;;18.58;2.65;;;16.80;99.90;;;;;;5093397;28;20038;-68
2022/10/24 05:42:37;;;;;;;8.93;2.28;;;16.80;99.90;;;;;;5093491;28;20102;-70
2022/10/24 05:45:08;;;;;;;13.98;2.85;;;16.70;99.90;;;;;;5093419;28;20161;-70
2022/10/24 05:47:34;;;;;;;16.70;2.35;;;16.60;99.90;;;;;;5094178;28;20049;-71
2022/10/24 05:50:00;;;;;;;13.05;2.83;;;16.50;99.90;;;;;;5093493;28;20349;-70
2022/10/24 05:52:26;;;;;;;20.23;3.15;;;16.50;99.90;;;;;;5078857;28;20115;-70
2022/10/24 05:54:51;;;;;;;15.35;2.33;;;16.40;99.90;;;;;;5092275;28;20081;-70
2022/10/24 05:57:17;;;;;;;13.18;2.17;;;16.50;99.90;;;;;;5093297;28;20035;-70
2022/10/24 05:59:43;;;;;;;11.75;2.60;;;16.50;99.90;;;;;;5093067;28;20038;-70
2022/10/24 06:02:19;;;;;;;13.73;3.10;;;16.50;99.90;;;;;;5092861;28;20063;-70
2022/10/24 06:04:45;;;;;;;10.38;2.83;;;16.50;99.90;;;;;;5093364;28;20032;-69
2022/10/24 06:07:11;;;;;;;11.80;2.80;;;16.40;99.90;;;;;;5092888;28;20054;-70
2022/10/24 06:09:39;;;;;;;15.68;2.60;;;16.40;99.90;;;;;;5092950;28;20024;-69
2022/10/24 06:12:07;;;;;;;14.80;2.83;;;16.30;99.90;;;;;;5092939;28;20039;-70
2022/10/24 06:14:33;;;;;;;19.08;2.92;;;16.20;99.90;;;;;;5093251;28;20020;-70
2022/10/24 06:16:59;;;;;;;17.83;2.95;;;16.10;99.90;;;;;;5092581;28;20051;-68
2022/10/24 06:19:25;;;;;;;12.35;2.83;;;16.10;99.90;;;;;;5092862;28;20028;-69
2022/10/24 06:21:50;;;;;;;20.60;2.78;;;16.00;99.90;;;;;;5092580;28;20110;-70
2022/10/24 06:24:16;;;;;;;11.98;2.38;;;15.90;99.90;;;;;;5092429;28;20039;-70
2022/10/24 06:26:42;;;;;;;16.98;3.45;;;15.90;99.90;;;;;;5092440;28;20048;-70
2022/10/24 06:29:07;;;;;;;17.73;3.00;;;15.80;99.90;;;;;;5074642;28;20024;-70
2022/10/24 06:31:34;;;;;;;16.67;2.55;;;15.70;99.90;;;;;;5092638;28;20027;-69
2022/10/24 06:34:00;;;;;;;16.20;2.67;;;15.70;99.90;;;;;;5092551;28;20012;-70
2022/10/24 06:36:26;;;;;;;10.23;2.80;;;15.70;99.90;;;;;;5092622;28;20028;-71
2022/10/24 06:38:53;;;;;;;8.38;2.00;;;15.70;99.90;;;;;;5092644;28;20034;-66
2022/10/24 06:41:19;;;;;;;15.82;2.30;;;15.70;99.90;;;;;;5092738;28;20032;-67
2022/10/24 06:43:45;;;;;;;21.95;2.78;;;15.70;99.90;;;;;;5092581;28;20039;-70
2022/10/24 06:46:13;;;;;;;9.57;2.13;;;15.60;99.90;;;;;;5092269;28;20020;-70
2022/10/24 06:48:39;;;;;;;13.07;3.00;;;15.60;99.90;;;;;;5092739;28;20044;-69
2022/10/24 06:51:05;;;;;;;18.42;2.95;;;15.60;99.90;;;;;;5090338;28;20024;-67
2022/10/24 06:53:31;;;;;;;13.95;2.33;;;15.50;99.90;;;;;;5080893;28;20423;-66
2022/10/24 06:56:01;;;;;;;14.63;2.58;;;15.50;99.90;;;;;;5092531;28;20033;-67
2022/10/24 06:58:31;;;;;;;15.25;2.78;;;15.60;99.90;;;;;;5066337;28;20021;-66
2022/10/24 07:00:57;;;;;;;13.45;2.60;;;15.50;99.90;;;;;;5070077;28;20024;-71
2022/10/24 07:03:23;;;;;;;17.52;3.25;;;15.40;99.90;;;;;;5070156;28;20100;-71
2022/10/24 07:05:49;;;;;;;10.82;1.83;;;15.50;99.90;;;;;;5074975;28;20135;-70
2022/10/24 07:08:15;;;;;;;15.65;2.25;;;15.50;99.90;;;;;;5043433;28;20060;-67
2022/10/24 07:10:40;;;;;;;11.68;2.65;;;15.60;99.90;;;;;;5075234;28;20017;-68
2022/10/24 07:13:06;;;;;;;15.15;3.13;;;15.70;99.90;;;;;;5075412;28;20032;-69
2022/10/24 07:15:32;;;;;;;12.45;1.60;;;15.70;99.90;;;;;;5072119;28;20374;-67
2022/10/24 07:17:58;;;;;;;14.55;2.10;;;15.70;99.90;;;;;;5075337;28;20054;-68
2022/10/24 07:20:23;;;;;;;14.85;2.58;;;15.80;99.90;;;;;;5074809;28;20135;-71
2022/10/24 07:22:49;;;;;;;10.35;2.58;;;16.00;99.90;;;;;;5075032;28;20028;-67
2022/10/24 07:25:15;;;;;;;7.63;2.03;;;16.00;99.90;;;;;;5075016;28;20048;-66
2022/10/24 07:27:41;;;;;;;9.77;2.03;;;16.00;99.90;;;;;;5073727;28;20032;-68
2022/10/24 07:30:07;;;;;;;14.05;2.45;;;16.00;99.90;;;;;;5074335;28;20077;-67
2022/10/24 07:32:33;;;;;;;9.15;1.88;;;16.10;99.90;;;;;;5074760;28;20480;-70
2022/10/24 07:34:59;;;;;;;18.63;3.67;;;16.00;99.90;;;;;;5074977;28;20056;-69
2022/10/24 07:37:25;;;;;;;10.27;2.08;;;16.00;99.90;;;;;;5074698;28;20405;-70
2022/10/24 07:39:51;;;;;;;11.43;2.42;;;16.00;99.90;;;;;;5067777;28;20028;-66
2022/10/24 07:42:17;;;;;;;11.95;2.00;;;16.00;99.90;;;;;;5073199;28;20488;-67
2022/10/24 07:44:44;;;;;;;11.98;2.20;;;16.10;99.90;;;;;;5072557;28;20870;-68
2022/10/24 07:47:10;;;;;;;14.10;2.40;;;16.10;99.90;;;;;;5072201;28;20040;-66
2022/10/24 07:49:37;;;;;;;10.35;2.33;;;16.10;99.90;;;;;;5074530;28;20412;-68
2022/10/24 07:52:04;;;;;;;16.15;1.95;;;16.20;99.90;;;;;;5074488;28;20086;-68
2022/10/24 07:54:29;;;;;;;9.30;2.35;;;16.20;99.90;;;;;;5088273;28;20096;-71
2022/10/24 07:56:55;;;;;;;16.33;3.05;;;16.20;99.90;;;;;;5088844;28;20869;-70
2022/10/24 07:59:21;;;;;;;10.68;2.65;;;16.20;99.90;;;;;;5073100;28;20024;-71
2022/10/24 08:01:46;;;;;;;12.00;2.15;;;16.30;99.90;;;;;;5074149;28;20048;-70
2022/10/24 08:04:12;;;;;;;8.93;2.10;;;16.40;99.90;;;;;;5070645;28;20016;-71
2022/10/24 08:06:39;;;;;;;14.32;2.85;;;16.30;99.90;;;;;;5079819;28;20519;-67
2022/10/24 08:09:05;;;;;;;18.38;2.45;;;16.30;99.90;;;;;;5073425;28;20131;-71
2022/10/24 08:11:31;;;;;;;8.15;2.17;;;16.30;99.90;;;;;;5070292;28;20112;-70
2022/10/24 08:13:57;;;;;;;10.13;1.98;;;16.20;99.90;;;;;;5069670;28;20108;-70
2022/10/24 08:16:25;;;;;;;8.13;1.95;;;16.20;99.90;;;;;;5070107;28;20167;-68
2022/10/24 08:18:52;;;;;;;7.03;1.27;;;16.20;99.90;;;;;;5072338;28;20074;-69
2022/10/24 08:21:19;;;;;;;10.35;1.90;;;16.30;99.90;;;;;;5074299;28;20070;-66
2022/10/24 08:23:47;;;;;;;12.07;1.90;;;16.50;99.90;;;;;;5072879;28;20033;-68
2022/10/24 08:26:16;;;;;;;9.57;2.15;;;16.70;99.90;;;;;;5073467;28;20048;-69
2022/10/24 08:28:42;;;;;;;12.35;2.75;;;16.80;99.90;;;;;;5070102;28;20037;-67
2022/10/24 08:31:11;;;;;;;12.93;2.33;;;16.80;99.90;;;;;;5046970;28;20021;-70
2022/10/24 08:33:38;;;;;;;13.30;2.00;;;17.00;99.90;;;;;;5070050;28;20052;-69
2022/10/24 08:36:16;;;;;;;10.35;1.95;;;17.10;99.90;;;;;;5071823;28;20433;-69
2022/10/24 08:38:42;;;;;;;8.95;1.67;;;17.20;99.90;;;;;;5068807;28;20035;-67
2022/10/24 08:41:15;;;;;;;12.43;2.10;;;17.30;99.90;;;;;;5078260;28;20029;-66
2022/10/24 08:43:40;;;;;;;8.50;1.70;;;17.30;99.90;;;;;;5073512;28;20540;-71
2022/10/24 08:46:32;;;;;;;8.38;2.22;;;17.30;99.90;;;;;;5073255;28;20103;-68
2022/10/24 08:49:14;;;;;;;12.30;2.25;;;17.00;99.90;;;;;;5070015;28;20102;-67
2022/10/24 08:51:46;;;;;;;7.47;1.58;;;17.00;99.90;;;;;;5073518;28;20028;-69
2022/10/24 08:54:16;;;;;;;15.07;2.33;;;17.10;99.90;;;;;;5084932;28;20038;-69
2022/10/24 08:56:42;;;;;;;13.60;2.63;;;17.10;99.90;;;;;;5064043;28;20036;-69
2022/10/24 08:59:11;;;;;;;12.13;1.75;;;17.10;99.90;;;;;;5075973;28;20047;-66
2022/10/24 09:01:47;;;;;;;17.35;2.22;;;17.00;99.90;;;;;;5080505;28;20404;-70
2022/10/24 09:04:16;;;;;;;13.65;2.80;;;17.20;99.90;;;;;;5066787;28;20043;-65
2022/10/24 09:06:42;;;;;;;9.48;1.77;;;17.30;99.90;;;;;;5068519;28;20051;-68
2022/10/24 09:09:16;;;;;;;6.70;1.75;;;17.40;99.90;;;;;;5066438;28;20083;-68
2022/10/24 09:11:45;;;;;;;7.55;1.70;;;17.40;99.90;;;;;;5067210;28;20378;-67
2022/10/24 09:14:14;;;;;;;6.82;1.67;;;17.90;99.90;;;;;;5068605;28;20419;-69
2022/10/24 09:16:42;;;;;;;11.55;2.22;;;18.20;99.90;;;;;;5072669;28;20385;-67
2022/10/24 09:19:13;;;;;;;22.10;2.25;;;18.00;99.90;;;;;;5073162;28;20025;-71
2022/10/24 09:21:41;;;;;;;18.00;1.50;;;18.20;99.90;;;;;;5072652;28;20411;-69
2022/10/24 09:24:34;;;;;;;8.98;1.77;;;17.90;99.90;;;;;;5051201;28;20031;-70
2022/10/24 09:27:04;;;;;;;6.07;1.70;;;17.60;99.90;;;;;;5070186;28;20040;-66
2022/10/24 09:29:32;;;;;;;14.07;1.63;;;17.80;99.90;;;;;;5072534;28;20052;-69
2022/10/24 09:31:59;;;;;;;10.50;1.70;;;18.10;99.90;;;;;;5072612;28;20449;-66
2022/10/24 09:34:25;;;;;;;17.02;1.73;;;17.90;99.90;;;;;;5072390;28;20509;-70
2022/10/24 09:36:51;;;;;;;7.53;1.75;;;18.20;99.90;;;;;;5071988;28;20102;-66
2022/10/24 09:39:29;;;;;;;10.52;1.77;;;18.40;99.90;;;;;;5047272;28;20496;-70
2022/10/24 09:41:56;;;;;;;8.85;1.85;;;19.00;99.90;;;;;;5068901;28;20024;-67
2022/10/24 09:44:42;;;;;;;11.85;1.50;;;19.10;99.90;;;;;;5072290;28;20025;-72
2022/10/24 09:47:24;;;;;;;11.93;2.47;;;18.90;99.90;;;;;;5067247;28;20033;-68
2022/10/24 09:49:50;;;;;;;12.27;2.17;;;18.80;99.90;;;;;;5072329;28;20032;-71
2022/10/24 09:52:25;;;;;;;7.78;1.55;;;18.80;99.90;;;;;;5069534;28;20017;-70
2022/10/24 09:55:15;;;;;;;11.93;1.88;;;19.10;99.90;;;;;;5067541;28;20041;-70
2022/10/24 09:57:41;;;;;;;15.25;2.97;;;19.30;99.90;;;;;;5063472;28;20033;-68
2022/10/24 10:00:22;;;;;;;13.52;1.92;;;19.00;99.90;;;;;;5070925;28;20065;-66
2022/10/24 10:03:20;;;;;;;7.93;1.90;;;18.50;99.90;;;;;;5070350;28;20043;-70
2022/10/24 10:05:53;;;;;;;10.30;2.15;;;18.20;99.90;;;;;;5070516;28;20119;-69
2022/10/24 10:08:29;;;;;;;13.45;2.35;;;18.40;99.90;;;;;;5070746;28;20123;-70
2022/10/24 10:11:07;;;;;;;10.35;2.10;;;18.30;99.90;;;;;;5067915;28;20033;-68
2022/10/24 10:13:42;;;;;;;10.90;2.55;;;18.20;99.90;;;;;;5071940;28;20063;-71
2022/10/24 10:16:23;;;;;;;13.05;2.10;;;17.90;99.90;;;;;;5071697;28;20028;-70
2022/10/24 10:18:50;;;;;;;16.17;2.55;;;18.00;99.90;;;;;;5064316;28;20047;-70
2022/10/24 10:21:22;;;;;;;11.70;2.20;;;18.30;99.90;;;;;;5072050;28;20016;-69
2022/10/24 10:23:52;;;;;;;12.30;2.55;;;18.10;99.90;;;;;;5053377;28;20036;-70
2022/10/24 10:26:27;;;;;;;11.85;1.90;;;18.00;99.90;;;;;;5071666;28;20036;-67
2022/10/24 10:29:03;;;;;;;14.60;2.65;;;17.80;99.90;;;;;;5070362;28;20705;-68
2022/10/24 10:31:57;;;;;;;14.50;2.80;;;18.60;99.90;;;;;;5034521;28;20032;-67
2022/10/24 10:34:50;;;;;;;11.50;2.50;;;18.60;99.90;;;;;;5062915;28;20042;-67
2022/10/24 10:37:28;;;;;;;10.68;1.70;;;18.60;99.90;;;;;;5034677;28;20029;-67
2022/10/24 10:40:20;;;;;;;15.65;2.08;;;19.00;99.90;;;;;;5072071;28;20056;-68
2022/10/24 10:43:05;;;;;;;9.07;2.10;;;19.30;99.90;;;;;;5071846;28;20028;-67
2022/10/24 10:45:39;;;;;;;15.27;2.47;;;19.00;99.90;;;;;;5068169;28;20071;-68
2022/10/24 10:48:39;;;;;;;12.13;2.05;;;18.70;99.90;;;;;;5072347;28;20043;-67
2022/10/24 10:51:16;;;;;;;11.82;2.65;;;18.80;99.90;;;;;;5064370;28;20020;-68
2022/10/24 10:54:05;;;;;;;13.88;2.92;;;18.40;99.90;;;;;;5081841;28;20109;-67
2022/10/24 10:56:44;;;;;;;12.15;2.35;;;18.30;99.90;;;;;;5078970;28;20039;-67
2022/10/24 10:59:47;;;;;;;15.93;2.40;;;18.30;99.90;;;;;;5092865;28;20346;-68
2022/10/24 11:02:43;;;;;;;8.38;2.30;;;18.20;99.90;;;;;;5072101;28;20032;-68
2022/10/24 11:05:15;;;;;;;8.10;2.00;;;18.10;99.90;;;;;;5064347;28;20077;-69
2022/10/24 11:08:00;;;;;;;18.35;3.47;;;17.90;99.90;;;;;;5092232;28;20040;-68
2022/10/24 11:10:58;;;;;;;14.77;2.40;;;17.90;99.90;;;;;;5067435;28;20034;-68
2022/10/24 11:13:51;;;;;;;14.43;2.25;;;17.90;99.90;;;;;;5092327;28;20032;-69
2022/10/24 11:16:23;;;;;;;21.40;1.98;;;18.00;99.90;;;;;;5091408;28;20392;-68
2022/10/24 11:18:51;;;;;;;8.90;2.05;;;18.10;99.90;;;;;;5065385;28;20040;-69
2022/10/24 11:21:21;;;;;;;16.73;2.75;;;18.20;99.90;;;;;;5092411;28;20012;-68
2022/10/24 11:24:04;;;;;;;19.10;2.42;;;18.20;99.90;;;;;;5092155;28;20028;-69
2022/10/24 11:26:35;;;;;;;11.82;1.92;;;17.90;99.90;;;;;;5073933;28;20036;-68
2022/10/24 11:29:27;;;;;;;11.43;1.93;;;17.90;99.90;;;;;;5065166;28;20097;-67
2022/10/24 11:32:11;;;;;;;16.90;2.60;;;17.90;99.90;;;;;;5092252;28;20278;-68
2022/10/24 11:34:45;;;;;;;10.35;2.38;;;17.90;99.90;;;;;;5092228;28;20115;-68
2022/10/24 11:37:17;;;;;;;13.38;2.00;;;18.00;99.90;;;;;;5091898;28;20025;-68
2022/10/24 11:40:02;;;;;;;14.20;2.20;;;18.00;99.90;;;;;;5092197;28;20111;-69
2022/10/24 11:42:31;;;;;;;11.15;2.08;;;18.10;99.90;;;;;;5091896;28;20024;-69
2022/10/24 11:45:10;;;;;;;6.95;1.48;;;18.00;99.90;;;;;;5092146;28;20059;-68
2022/10/24 11:48:09;;;;;;;7.45;1.55;;;18.00;99.90;;;;;;5091860;28;20032;-68
2022/10/24 11:50:54;;;;;;;17.73;2.20;;;18.10;99.90;;;;;;5091967;28;20063;-67
2022/10/24 11:53:32;;;;;;;7.60;1.75;;;18.00;99.90;;;;;;5069150;28;20024;-67
2022/10/24 11:56:22;;;;;;;12.05;1.80;;;17.90;99.90;;;;;;5095926;28;20071;-68
2022/10/24 11:58:56;;;;;;;10.95;2.05;;;17.90;99.90;;;;;;5095469;28;20032;-67
2022/10/24 12:01:54;;;;;;;10.10;1.77;;;17.90;99.90;;;;;;5095410;28;20035;-67
2022/10/24 12:04:46;;;;;;;7.22;1.63;;;18.10;99.90;;;;;;5095267;28;20028;-68
2022/10/24 12:07:33;;;;;;;4.65;1.42;;;18.30;99.90;;;;;;5073087;28;20089;-68
2022/10/24 12:10:19;;;;;;;9.27;1.25;;;19.00;99.90;;;;;;5095426;28;20036;-70
2022/10/24 12:13:04;;;;;;;11.23;2.25;;;19.40;99.90;;;;;;5095333;28;20059;-68
2022/10/24 12:15:55;;;;;;;10.95;1.77;;;19.20;99.90;;;;;;5051573;28;20032;-69
2022/10/24 12:18:42;;;;;;;12.18;2.08;;;20.30;99.90;;;;;;5095222;28;20036;-68
2022/10/24 12:21:14;;;;;;;8.98;1.40;;;21.30;99.90;;;;;;5076912;28;20028;-67
2022/10/24 12:23:41;;;;;;;7.88;2.20;;;20.40;99.90;;;;;;5092004;28;20415;-67
2022/10/24 12:26:14;;;;;;;15.60;1.92;;;19.90;99.90;;;;;;5095052;28;20547;-68
2022/10/24 12:28:40;;;;;;;5.95;1.13;;;19.40;99.90;;;;;;5094820;28;20093;-67
2022/10/24 12:31:17;;;;;;;5.00;1.25;;;19.30;99.90;;;;;;5095195;28;20021;-68
2022/10/24 12:33:44;;;;;;;11.05;1.40;;;18.90;99.90;;;;;;5094508;28;20028;-68
2022/10/24 12:36:11;;;;;;;8.13;1.38;;;19.10;99.90;;;;;;5095107;28;20058;-68
2022/10/24 12:38:36;;;;;;;7.03;1.45;;;19.20;99.90;;;;;;5094798;28;20070;-68
2022/10/24 12:41:26;;;;;;;7.80;1.70;;;19.30;99.90;;;;;;5094442;28;20036;-68
2022/10/24 12:44:30;;;;;;;8.77;1.65;;;19.40;99.90;;;;;;5094498;28;20444;-68
2022/10/24 12:46:56;;;;;;;6.43;1.45;;;19.60;99.90;;;;;;5076388;28;20055;-68
2022/10/24 12:49:27;;;;;;;3.33;1.35;;;19.00;99.90;;;;;;5094225;28;20444;-69
2022/10/24 12:51:54;;;;;;;;;;;18.80;99.90;;;;;;5067960;28;20122;-67
2022/10/24 12:54:38;;;;;;;7.13;1.40;;;19.20;99.90;;;;;;5089608;28;20346;-68
2022/10/24 12:57:03;;;;;;;10.20;1.42;;;19.60;99.90;;;;;;5094521;28;20028;-68
2022/10/24 12:59:31;;;;;;;5.55;1.95;;;20.30;99.90;;;;;;5076165;28;20396;-67
2022/10/24 13:02:12;;;;;;;13.93;1.67;;;20.80;99.90;;;;;;5093907;28;20048;-68